sensor_id;sensor_type;location;lat;lon;timestamp;temperature;humidity
14705;DHT22;7442;50.840;3.396;2023-01-13T00:01:59;24.40;46.30
14705;DHT22;7442;50.840;3.396;2023-01-13T00:04:47;24.40;46.20
14705;DHT22;7442;50.840;3.396;2023-01-13T00:07:33;24.40;46.10
14705;DHT22;7442;50.840;3.396;2023-01-13T00:10:19;24.40;46.10
14705;DHT22;7442;50.840;3.396;2023-01-13T00:13:06;24.50;46.00
14705;DHT22;7442;50.840;3.396;2023-01-13T00:16:04;24.50;46.00
14705;DHT22;7442;50.840;3.396;2023-01-13T00:18:51;24.50;45.90
14705;DHT22;7442;50.840;3.396;2023-01-13T00:21:37;24.50;45.70
14705;DHT22;7442;50.840;3.396;2023-01-13T00:24:28;24.50;45.70
14705;DHT22;7442;50.840;3.396;2023-01-13T00:27:14;24.60;45.70
14705;DHT22;7442;50.840;3.396;2023-01-13T00:30:01;24.60;45.60
14705;DHT22;7442;50.840;3.396;2023-01-13T00:32:47;24.60;45.50
14705;DHT22;7442;50.840;3.396;2023-01-13T00:35:33;24.70;45.40
14705;DHT22;7442;50.840;3.396;2023-01-13T00:38:20;24.60;45.40
14705;DHT22;7442;50.840;3.396;2023-01-13T00:41:09;24.60;45.40
14705;DHT22;7442;50.840;3.396;2023-01-13T00:43:56;24.60;45.30
14705;DHT22;7442;50.840;3.396;2023-01-13T00:46:42;24.60;45.30
14705;DHT22;7442;50.840;3.396;2023-01-13T00:49:28;24.70;45.30
14705;DHT22;7442;50.840;3.396;2023-01-13T00:52:15;24.60;45.20
14705;DHT22;7442;50.840;3.396;2023-01-13T00:55:01;24.70;45.20
14705;DHT22;7442;50.840;3.396;2023-01-13T00:57:47;24.70;45.10
14705;DHT22;7442;50.840;3.396;2023-01-13T01:00:34;24.60;45.10
14705;DHT22;7442;50.840;3.396;2023-01-13T01:03:20;24.70;45.10
14705;DHT22;7442;50.840;3.396;2023-01-13T01:06:10;24.70;45.00
14705;DHT22;7442;50.840;3.396;2023-01-13T01:08:56;24.70;44.90
14705;DHT22;7442;50.840;3.396;2023-01-13T01:11:43;24.70;44.90
14705;DHT22;7442;50.840;3.396;2023-01-13T01:14:29;24.80;44.70
14705;DHT22;7442;50.840;3.396;2023-01-13T01:17:16;24.90;44.70
14705;DHT22;7442;50.840;3.396;2023-01-13T01:20:03;24.90;44.70
14705;DHT22;7442;50.840;3.396;2023-01-13T01:22:49;24.80;44.70
14705;DHT22;7442;50.840;3.396;2023-01-13T01:25:37;24.70;44.80
14705;DHT22;7442;50.840;3.396;2023-01-13T01:28:29;24.80;44.70
14705;DHT22;7442;50.840;3.396;2023-01-13T01:31:18;24.70;44.80
14705;DHT22;7442;50.840;3.396;2023-01-13T01:34:05;24.80;44.80
14705;DHT22;7442;50.840;3.396;2023-01-13T01:36:52;24.80;44.70
14705;DHT22;7442;50.840;3.396;2023-01-13T01:39:40;24.80;44.60
14705;DHT22;7442;50.840;3.396;2023-01-13T01:42:26;24.80;44.50
14705;DHT22;7442;50.840;3.396;2023-01-13T01:45:31;24.80;44.60
14705;DHT22;7442;50.840;3.396;2023-01-13T01:48:17;24.80;44.50
14705;DHT22;7442;50.840;3.396;2023-01-13T01:51:04;24.80;44.50
14705;DHT22;7442;50.840;3.396;2023-01-13T01:53:59;24.80;44.40
14705;DHT22;7442;50.840;3.396;2023-01-13T01:56:47;24.80;44.40
14705;DHT22;7442;50.840;3.396;2023-01-13T01:59:35;24.80;44.40
14705;DHT22;7442;50.840;3.396;2023-01-13T02:02:22;24.80;44.40
14705;DHT22;7442;50.840;3.396;2023-01-13T02:05:08;24.70;44.30
14705;DHT22;7442;50.840;3.396;2023-01-13T02:07:56;24.80;44.40
14705;DHT22;7442;50.840;3.396;2023-01-13T02:10:47;24.80;44.30
14705;DHT22;7442;50.840;3.396;2023-01-13T02:13:33;24.80;44.30
14705;DHT22;7442;50.840;3.396;2023-01-13T02:16:21;24.80;44.20
14705;DHT22;7442;50.840;3.396;2023-01-13T02:28:37;24.90;44.00
14705;DHT22;7442;50.840;3.396;2023-01-13T02:31:20;24.70;44.30
14705;DHT22;7442;50.840;3.396;2023-01-13T02:34:32;24.60;44.50
14705;DHT22;7442;50.840;3.396;2023-01-13T02:37:22;24.60;44.60
14705;DHT22;7442;50.840;3.396;2023-01-13T02:40:24;24.60;44.60
14705;DHT22;7442;50.840;3.396;2023-01-13T02:43:27;24.60;44.70
14705;DHT22;7442;50.840;3.396;2023-01-13T02:49:48;24.50;44.80
14705;DHT22;7442;50.840;3.396;2023-01-13T02:52:51;24.50;44.80
14705;DHT22;7442;50.840;3.396;2023-01-13T02:55:41;24.50;44.90
14705;DHT22;7442;50.840;3.396;2023-01-13T02:58:28;24.50;44.90
14705;DHT22;7442;50.840;3.396;2023-01-13T03:01:16;24.50;45.50
14705;DHT22;7442;50.840;3.396;2023-01-13T03:08:01;24.50;45.10
14705;DHT22;7442;50.840;3.396;2023-01-13T03:11:04;24.50;45.00
14705;DHT22;7442;50.840;3.396;2023-01-13T03:14:00;24.50;44.90
14705;DHT22;7442;50.840;3.396;2023-01-13T03:17:10;24.50;44.30
14705;DHT22;7442;50.840;3.396;2023-01-13T03:20:18;24.50;44.90
14705;DHT22;7442;50.840;3.396;2023-01-13T03:23:09;24.60;44.80
14705;DHT22;7442;50.840;3.396;2023-01-13T03:26:43;24.70;44.60
14705;DHT22;7442;50.840;3.396;2023-01-13T03:28:53;24.70;45.20
14705;DHT22;7442;50.840;3.396;2023-01-13T03:31:43;24.60;44.60
14705;DHT22;7442;50.840;3.396;2023-01-13T03:34:33;24.70;44.60
14705;DHT22;7442;50.840;3.396;2023-01-13T03:37:24;24.70;44.50
14705;DHT22;7442;50.840;3.396;2023-01-13T03:40:17;24.70;44.40
14705;DHT22;7442;50.840;3.396;2023-01-13T03:43:08;24.80;44.40
14705;DHT22;7442;50.840;3.396;2023-01-13T03:46:20;24.80;44.20
14705;DHT22;7442;50.840;3.396;2023-01-13T03:49:07;24.80;44.20
14705;DHT22;7442;50.840;3.396;2023-01-13T03:51:57;24.90;44.30
14705;DHT22;7442;50.840;3.396;2023-01-13T03:54:53;24.90;44.10
14705;DHT22;7442;50.840;3.396;2023-01-13T03:57:52;24.80;44.10
14705;DHT22;7442;50.840;3.396;2023-01-13T04:00:41;24.90;44.10
14705;DHT22;7442;50.840;3.396;2023-01-13T04:03:38;24.90;44.00
14705;DHT22;7442;50.840;3.396;2023-01-13T04:06:34;24.90;43.90
14705;DHT22;7442;50.840;3.396;2023-01-13T04:09:55;25.00;43.80
14705;DHT22;7442;50.840;3.396;2023-01-13T04:12:32;25.00;43.70
14705;DHT22;7442;50.840;3.396;2023-01-13T04:15:39;25.00;43.70
14705;DHT22;7442;50.840;3.396;2023-01-13T04:18:28;25.00;43.60
14705;DHT22;7442;50.840;3.396;2023-01-13T04:21:15;25.10;43.60
14705;DHT22;7442;50.840;3.396;2023-01-13T04:24:02;25.00;43.70
14705;DHT22;7442;50.840;3.396;2023-01-13T04:26:48;24.90;43.70
14705;DHT22;7442;50.840;3.396;2023-01-13T04:29:34;24.90;43.90
14705;DHT22;7442;50.840;3.396;2023-01-13T04:32:22;24.80;44.00
14705;DHT22;7442;50.840;3.396;2023-01-13T04:35:08;24.80;44.10
14705;DHT22;7442;50.840;3.396;2023-01-13T04:37:54;24.90;44.10
14705;DHT22;7442;50.840;3.396;2023-01-13T04:40:41;24.80;44.10
14705;DHT22;7442;50.840;3.396;2023-01-13T04:43:28;24.80;44.20
14705;DHT22;7442;50.840;3.396;2023-01-13T04:46:14;24.70;44.20
14705;DHT22;7442;50.840;3.396;2023-01-13T04:49:02;24.70;44.20
14705;DHT22;7442;50.840;3.396;2023-01-13T04:51:49;24.80;44.20
14705;DHT22;7442;50.840;3.396;2023-01-13T04:54:35;24.80;44.20
14705;DHT22;7442;50.840;3.396;2023-01-13T04:57:22;24.70;44.20
14705;DHT22;7442;50.840;3.396;2023-01-13T05:00:10;24.70;44.20
14705;DHT22;7442;50.840;3.396;2023-01-13T05:02:57;24.70;44.20
14705;DHT22;7442;50.840;3.396;2023-01-13T05:05:43;24.80;44.20
14705;DHT22;7442;50.840;3.396;2023-01-13T05:08:30;24.70;44.10
14705;DHT22;7442;50.840;3.396;2023-01-13T05:11:16;24.70;44.10
14705;DHT22;7442;50.840;3.396;2023-01-13T05:14:26;24.80;44.20
14705;DHT22;7442;50.840;3.396;2023-01-13T05:17:31;24.80;44.10
14705;DHT22;7442;50.840;3.396;2023-01-13T05:20:18;24.70;44.10
14705;DHT22;7442;50.840;3.396;2023-01-13T05:23:04;24.80;44.10
14705;DHT22;7442;50.840;3.396;2023-01-13T05:26:09;24.80;44.10
14705;DHT22;7442;50.840;3.396;2023-01-13T05:28:55;24.70;44.10
14705;DHT22;7442;50.840;3.396;2023-01-13T05:31:42;24.70;44.10
14705;DHT22;7442;50.840;3.396;2023-01-13T05:34:28;24.70;44.10
14705;DHT22;7442;50.840;3.396;2023-01-13T05:37:14;24.80;44.00
14705;DHT22;7442;50.840;3.396;2023-01-13T05:40:01;24.80;44.00
14705;DHT22;7442;50.840;3.396;2023-01-13T05:43:14;24.80;44.10
14705;DHT22;7442;50.840;3.396;2023-01-13T05:46:08;24.80;44.10
14705;DHT22;7442;50.840;3.396;2023-01-13T05:48:55;24.80;44.00
14705;DHT22;7442;50.840;3.396;2023-01-13T05:51:44;24.80;43.90
14705;DHT22;7442;50.840;3.396;2023-01-13T05:54:30;24.80;43.80
14705;DHT22;7442;50.840;3.396;2023-01-13T05:57:16;24.80;43.80
14705;DHT22;7442;50.840;3.396;2023-01-13T06:00:04;24.80;43.80
14705;DHT22;7442;50.840;3.396;2023-01-13T06:02:51;24.90;43.90
14705;DHT22;7442;50.840;3.396;2023-01-13T06:05:37;24.90;43.90
14705;DHT22;7442;50.840;3.396;2023-01-13T06:08:25;24.90;43.80
14705;DHT22;7442;50.840;3.396;2023-01-13T06:11:11;24.80;43.70
14705;DHT22;7442;50.840;3.396;2023-01-13T06:13:57;24.90;43.80
14705;DHT22;7442;50.840;3.396;2023-01-13T06:16:44;24.80;43.80
14705;DHT22;7442;50.840;3.396;2023-01-13T06:19:30;24.80;43.90
14705;DHT22;7442;50.840;3.396;2023-01-13T06:22:27;24.80;43.90
14705;DHT22;7442;50.840;3.396;2023-01-13T06:25:59;24.90;44.10
14705;DHT22;7442;50.840;3.396;2023-01-13T06:28:00;24.90;44.10
14705;DHT22;7442;50.840;3.396;2023-01-13T06:30:49;24.80;44.20
14705;DHT22;7442;50.840;3.396;2023-01-13T06:33:40;24.90;44.30
14705;DHT22;7442;50.840;3.396;2023-01-13T06:36:31;24.90;44.40
14705;DHT22;7442;50.840;3.396;2023-01-13T06:39:20;25.00;44.40
14705;DHT22;7442;50.840;3.396;2023-01-13T06:42:08;25.00;44.20
14705;DHT22;7442;50.840;3.396;2023-01-13T06:45:12;25.00;44.00
14705;DHT22;7442;50.840;3.396;2023-01-13T06:47:59;25.00;44.00
14705;DHT22;7442;50.840;3.396;2023-01-13T06:50:46;25.00;44.00
14705;DHT22;7442;50.840;3.396;2023-01-13T06:53:32;25.00;44.00
14705;DHT22;7442;50.840;3.396;2023-01-13T06:56:18;25.00;44.00
14705;DHT22;7442;50.840;3.396;2023-01-13T06:59:06;25.00;44.00
14705;DHT22;7442;50.840;3.396;2023-01-13T07:01:53;25.00;43.90
14705;DHT22;7442;50.840;3.396;2023-01-13T07:04:40;25.00;44.00
14705;DHT22;7442;50.840;3.396;2023-01-13T07:07:27;25.00;44.00
14705;DHT22;7442;50.840;3.396;2023-01-13T07:10:14;25.00;43.90
14705;DHT22;7442;50.840;3.396;2023-01-13T07:13:04;25.00;43.90
14705;DHT22;7442;50.840;3.396;2023-01-13T07:16:09;25.00;43.90
14705;DHT22;7442;50.840;3.396;2023-01-13T07:18:55;25.00;43.90
14705;DHT22;7442;50.840;3.396;2023-01-13T07:21:41;25.00;43.80
14705;DHT22;7442;50.840;3.396;2023-01-13T07:24:28;25.00;43.80
14705;DHT22;7442;50.840;3.396;2023-01-13T07:27:14;25.00;43.80
14705;DHT22;7442;50.840;3.396;2023-01-13T07:30:00;25.00;43.80
14705;DHT22;7442;50.840;3.396;2023-01-13T07:32:47;25.10;43.70
14705;DHT22;7442;50.840;3.396;2023-01-13T07:35:34;25.10;43.70
14705;DHT22;7442;50.840;3.396;2023-01-13T07:38:20;25.00;43.70
14705;DHT22;7442;50.840;3.396;2023-01-13T07:41:07;25.00;43.70
14705;DHT22;7442;50.840;3.396;2023-01-13T07:44:12;25.00;43.70
14705;DHT22;7442;50.840;3.396;2023-01-13T07:46:59;25.00;43.70
14705;DHT22;7442;50.840;3.396;2023-01-13T07:49:45;25.10;43.70
14705;DHT22;7442;50.840;3.396;2023-01-13T07:52:31;25.10;43.70
14705;DHT22;7442;50.840;3.396;2023-01-13T07:55:18;25.00;43.70
14705;DHT22;7442;50.840;3.396;2023-01-13T07:58:04;25.00;43.70
14705;DHT22;7442;50.840;3.396;2023-01-13T08:00:51;25.20;43.70
14705;DHT22;7442;50.840;3.396;2023-01-13T08:03:39;25.30;43.60
14705;DHT22;7442;50.840;3.396;2023-01-13T08:06:26;25.50;43.50
14705;DHT22;7442;50.840;3.396;2023-01-13T08:09:12;25.50;43.30
14705;DHT22;7442;50.840;3.396;2023-01-13T08:12:00;25.50;43.40
14705;DHT22;7442;50.840;3.396;2023-01-13T08:15:05;25.50;43.20
14705;DHT22;7442;50.840;3.396;2023-01-13T08:17:54;25.50;43.20
14705;DHT22;7442;50.840;3.396;2023-01-13T08:20:40;25.50;43.30
14705;DHT22;7442;50.840;3.396;2023-01-13T08:23:27;25.40;43.30
14705;DHT22;7442;50.840;3.396;2023-01-13T08:26:15;25.60;43.20
14705;DHT22;7442;50.840;3.396;2023-01-13T08:29:02;25.40;43.20
14705;DHT22;7442;50.840;3.396;2023-01-13T08:31:49;25.40;43.30
14705;DHT22;7442;50.840;3.396;2023-01-13T08:34:35;25.30;43.40
14705;DHT22;7442;50.840;3.396;2023-01-13T08:37:22;25.30;43.40
14705;DHT22;7442;50.840;3.396;2023-01-13T08:40:09;25.30;43.40
14705;DHT22;7442;50.840;3.396;2023-01-13T08:42:56;25.30;43.30
14705;DHT22;7442;50.840;3.396;2023-01-13T08:45:43;25.30;43.40
14705;DHT22;7442;50.840;3.396;2023-01-13T08:48:29;25.30;43.30
14705;DHT22;7442;50.840;3.396;2023-01-13T08:51:15;25.30;43.30
14705;DHT22;7442;50.840;3.396;2023-01-13T08:54:02;25.30;43.30
14705;DHT22;7442;50.840;3.396;2023-01-13T08:56:48;25.30;43.30
14705;DHT22;7442;50.840;3.396;2023-01-13T08:59:35;25.30;43.20
14705;DHT22;7442;50.840;3.396;2023-01-13T09:02:23;25.30;43.30
14705;DHT22;7442;50.840;3.396;2023-01-13T09:05:10;25.30;43.30
14705;DHT22;7442;50.840;3.396;2023-01-13T09:07:58;25.20;43.30
14705;DHT22;7442;50.840;3.396;2023-01-13T09:10:45;25.30;43.20
14705;DHT22;7442;50.840;3.396;2023-01-13T09:13:31;25.30;43.30
14705;DHT22;7442;50.840;3.396;2023-01-13T09:16:17;25.30;43.30
14705;DHT22;7442;50.840;3.396;2023-01-13T09:19:04;25.30;43.20
14705;DHT22;7442;50.840;3.396;2023-01-13T09:21:50;25.20;43.30
14705;DHT22;7442;50.840;3.396;2023-01-13T09:24:37;25.30;43.20
14705;DHT22;7442;50.840;3.396;2023-01-13T09:27:23;25.30;43.20
14705;DHT22;7442;50.840;3.396;2023-01-13T09:30:10;25.20;43.20
14705;DHT22;7442;50.840;3.396;2023-01-13T09:32:58;25.20;43.20
14705;DHT22;7442;50.840;3.396;2023-01-13T09:36:03;25.30;43.00
14705;DHT22;7442;50.840;3.396;2023-01-13T09:38:50;25.20;43.20
14705;DHT22;7442;50.840;3.396;2023-01-13T09:41:45;25.20;43.30
14705;DHT22;7442;50.840;3.396;2023-01-13T09:44:55;25.20;43.20
14705;DHT22;7442;50.840;3.396;2023-01-13T09:51:16;25.20;43.10
14705;DHT22;7442;50.840;3.396;2023-01-13T09:54:10;25.20;43.10
14705;DHT22;7442;50.840;3.396;2023-01-13T09:56:52;25.30;43.00
14705;DHT22;7442;50.840;3.396;2023-01-13T09:59:39;25.30;43.10
14705;DHT22;7442;50.840;3.396;2023-01-13T10:08:30;25.20;43.00
14705;DHT22;7442;50.840;3.396;2023-01-13T10:11:20;25.30;43.10
14705;DHT22;7442;50.840;3.396;2023-01-13T10:17:50;25.20;43.00
14705;DHT22;7442;50.840;3.396;2023-01-13T10:20:55;25.20;43.00
14705;DHT22;7442;50.840;3.396;2023-01-13T10:23:49;25.20;43.00
14705;DHT22;7442;50.840;3.396;2023-01-13T10:29:40;25.30;43.00
14705;DHT22;7442;50.840;3.396;2023-01-13T10:32:27;25.40;43.10
14705;DHT22;7442;50.840;3.396;2023-01-13T10:35:13;25.50;42.80
14705;DHT22;7442;50.840;3.396;2023-01-13T10:38:00;25.60;42.60
14705;DHT22;7442;50.840;3.396;2023-01-13T10:43:39;25.60;42.40
14705;DHT22;7442;50.840;3.396;2023-01-13T10:46:27;25.60;42.30
14705;DHT22;7442;50.840;3.396;2023-01-13T10:49:34;25.70;42.30
14705;DHT22;7442;50.840;3.396;2023-01-13T10:52:28;25.60;42.30
14705;DHT22;7442;50.840;3.396;2023-01-13T10:55:33;25.60;42.20
14705;DHT22;7442;50.840;3.396;2023-01-13T10:58:25;25.60;42.30
14705;DHT22;7442;50.840;3.396;2023-01-13T11:01:23;25.60;42.20
14705;DHT22;7442;50.840;3.396;2023-01-13T11:04:30;25.60;42.30
14705;DHT22;7442;50.840;3.396;2023-01-13T11:07:32;25.60;42.20
14705;DHT22;7442;50.840;3.396;2023-01-13T11:10:23;25.70;42.20
14705;DHT22;7442;50.840;3.396;2023-01-13T11:16:14;25.70;42.20
14705;DHT22;7442;50.840;3.396;2023-01-13T11:19:08;25.70;42.20
14705;DHT22;7442;50.840;3.396;2023-01-13T11:22:15;25.70;42.20
14705;DHT22;7442;50.840;3.396;2023-01-13T11:25:03;25.90;42.30
14705;DHT22;7442;50.840;3.396;2023-01-13T11:34:28;25.90;42.10
14705;DHT22;7442;50.840;3.396;2023-01-13T11:37:36;25.90;42.00
14705;DHT22;7442;50.840;3.396;2023-01-13T11:43:18;25.90;42.00
14705;DHT22;7442;50.840;3.396;2023-01-13T11:46:05;25.90;42.00
14705;DHT22;7442;50.840;3.396;2023-01-13T11:48:55;25.90;42.00
14705;DHT22;7442;50.840;3.396;2023-01-13T11:51:56;25.90;41.90
14705;DHT22;7442;50.840;3.396;2023-01-13T11:55:05;25.90;41.90
14705;DHT22;7442;50.840;3.396;2023-01-13T12:03:49;25.90;42.20
14705;DHT22;7442;50.840;3.396;2023-01-13T12:06:36;25.90;42.10
14705;DHT22;7442;50.840;3.396;2023-01-13T12:16:19;25.80;42.20
14705;DHT22;7442;50.840;3.396;2023-01-13T12:19:24;25.80;42.30
14705;DHT22;7442;50.840;3.396;2023-01-13T12:22:12;25.80;42.30
14705;DHT22;7442;50.840;3.396;2023-01-13T12:25:26;25.90;42.20
14705;DHT22;7442;50.840;3.396;2023-01-13T12:28:23;25.90;42.00
14705;DHT22;7442;50.840;3.396;2023-01-13T12:31:08;25.90;41.70
14705;DHT22;7442;50.840;3.396;2023-01-13T12:37:34;25.90;41.40
14705;DHT22;7442;50.840;3.396;2023-01-13T12:43:24;25.90;41.30
14705;DHT22;7442;50.840;3.396;2023-01-13T12:49:27;26.00;41.30
14705;DHT22;7442;50.840;3.396;2023-01-13T12:52:21;25.90;40.90
14705;DHT22;7442;50.840;3.396;2023-01-13T12:55:11;25.90;41.10
14705;DHT22;7442;50.840;3.396;2023-01-13T13:00:55;25.90;41.40
14705;DHT22;7442;50.840;3.396;2023-01-13T13:03:41;25.90;41.30
14705;DHT22;7442;50.840;3.396;2023-01-13T13:06:30;25.90;41.30
14705;DHT22;7442;50.840;3.396;2023-01-13T13:09:32;25.90;41.50
14705;DHT22;7442;50.840;3.396;2023-01-13T13:15:37;26.00;41.50
14705;DHT22;7442;50.840;3.396;2023-01-13T13:18:26;26.00;41.40
14705;DHT22;7442;50.840;3.396;2023-01-13T13:21:12;26.00;41.40
14705;DHT22;7442;50.840;3.396;2023-01-13T13:24:03;25.90;41.40
14705;DHT22;7442;50.840;3.396;2023-01-13T13:26:50;26.00;41.50
14705;DHT22;7442;50.840;3.396;2023-01-13T13:29:42;25.90;41.50
14705;DHT22;7442;50.840;3.396;2023-01-13T13:32:58;26.00;41.50
14705;DHT22;7442;50.840;3.396;2023-01-13T13:42:20;26.00;41.50
14705;DHT22;7442;50.840;3.396;2023-01-13T13:45:26;26.00;41.60
14705;DHT22;7442;50.840;3.396;2023-01-13T13:48:30;25.90;41.60
14705;DHT22;7442;50.840;3.396;2023-01-13T13:51:29;26.00;41.80
14705;DHT22;7442;50.840;3.396;2023-01-13T13:54:19;26.00;41.80
14705;DHT22;7442;50.840;3.396;2023-01-13T13:57:20;26.00;41.80
14705;DHT22;7442;50.840;3.396;2023-01-13T14:06:20;25.90;41.80
14705;DHT22;7442;50.840;3.396;2023-01-13T14:09:02;25.90;41.70
14705;DHT22;7442;50.840;3.396;2023-01-13T14:12:02;26.00;41.80
14705;DHT22;7442;50.840;3.396;2023-01-13T14:14:45;26.00;41.60
14705;DHT22;7442;50.840;3.396;2023-01-13T14:17:33;26.10;41.70
14705;DHT22;7442;50.840;3.396;2023-01-13T14:20:19;26.10;41.60
14705;DHT22;7442;50.840;3.396;2023-01-13T14:23:06;26.10;41.70
14705;DHT22;7442;50.840;3.396;2023-01-13T14:25:52;26.10;41.60
14705;DHT22;7442;50.840;3.396;2023-01-13T14:28:41;26.00;41.80
14705;DHT22;7442;50.840;3.396;2023-01-13T14:31:29;26.00;41.50
14705;DHT22;7442;50.840;3.396;2023-01-13T14:34:16;26.00;41.40
14705;DHT22;7442;50.840;3.396;2023-01-13T14:37:20;26.00;41.50
14705;DHT22;7442;50.840;3.396;2023-01-13T14:39:53;25.90;41.60
14705;DHT22;7442;50.840;3.396;2023-01-13T14:42:40;25.90;41.50
14705;DHT22;7442;50.840;3.396;2023-01-13T14:45:27;25.80;40.10
14705;DHT22;7442;50.840;3.396;2023-01-13T14:48:14;25.70;40.80
14705;DHT22;7442;50.840;3.396;2023-01-13T14:51:06;25.80;41.20
14705;DHT22;7442;50.840;3.396;2023-01-13T14:53:55;25.80;41.10
14705;DHT22;7442;50.840;3.396;2023-01-13T14:56:49;25.80;41.10
14705;DHT22;7442;50.840;3.396;2023-01-13T14:59:47;25.80;41.30
14705;DHT22;7442;50.840;3.396;2023-01-13T15:02:38;25.80;41.20
14705;DHT22;7442;50.840;3.396;2023-01-13T15:11:15;25.80;41.20
14705;DHT22;7442;50.840;3.396;2023-01-13T15:13:59;25.80;41.50
14705;DHT22;7442;50.840;3.396;2023-01-13T15:16:46;25.80;41.10
14705;DHT22;7442;50.840;3.396;2023-01-13T15:19:33;25.80;41.10
14705;DHT22;7442;50.840;3.396;2023-01-13T15:22:19;25.80;41.10
14705;DHT22;7442;50.840;3.396;2023-01-13T15:25:07;25.80;41.10
14705;DHT22;7442;50.840;3.396;2023-01-13T15:27:55;25.80;41.10
14705;DHT22;7442;50.840;3.396;2023-01-13T15:30:41;25.70;41.10
14705;DHT22;7442;50.840;3.396;2023-01-13T15:33:27;25.50;40.20
14705;DHT22;7442;50.840;3.396;2023-01-13T15:36:20;25.40;40.30
14705;DHT22;7442;50.840;3.396;2023-01-13T15:39:09;25.50;40.70
14705;DHT22;7442;50.840;3.396;2023-01-13T15:41:56;25.60;40.70
14705;DHT22;7442;50.840;3.396;2023-01-13T15:45:01;25.60;40.80
14705;DHT22;7442;50.840;3.396;2023-01-13T15:48:05;25.60;41.00
14705;DHT22;7442;50.840;3.396;2023-01-13T15:50:52;25.60;41.20
14705;DHT22;7442;50.840;3.396;2023-01-13T15:53:41;25.50;41.30
14705;DHT22;7442;50.840;3.396;2023-01-13T15:56:28;25.50;41.30
14705;DHT22;7442;50.840;3.396;2023-01-13T15:59:20;25.50;41.60
14705;DHT22;7442;50.840;3.396;2023-01-13T16:02:11;25.50;41.30
14705;DHT22;7442;50.840;3.396;2023-01-13T16:04:56;25.50;41.40
14705;DHT22;7442;50.840;3.396;2023-01-13T16:07:45;25.60;41.50
14705;DHT22;7442;50.840;3.396;2023-01-13T16:10:31;25.50;41.50
14705;DHT22;7442;50.840;3.396;2023-01-13T16:13:18;25.50;41.50
14705;DHT22;7442;50.840;3.396;2023-01-13T16:16:20;25.50;41.50
14705;DHT22;7442;50.840;3.396;2023-01-13T16:19:02;25.40;41.50
14705;DHT22;7442;50.840;3.396;2023-01-13T16:21:49;25.40;41.60
14705;DHT22;7442;50.840;3.396;2023-01-13T16:24:35;25.40;41.70
14705;DHT22;7442;50.840;3.396;2023-01-13T16:27:23;25.30;41.70
14705;DHT22;7442;50.840;3.396;2023-01-13T16:33:11;25.30;41.80
14705;DHT22;7442;50.840;3.396;2023-01-13T16:35:58;25.20;41.80
14705;DHT22;7442;50.840;3.396;2023-01-13T16:38:45;25.30;41.90
14705;DHT22;7442;50.840;3.396;2023-01-13T16:41:32;25.30;41.90
14705;DHT22;7442;50.840;3.396;2023-01-13T16:44:19;25.30;41.80
14705;DHT22;7442;50.840;3.396;2023-01-13T16:47:09;25.30;41.90
14705;DHT22;7442;50.840;3.396;2023-01-13T16:49:53;25.30;42.00
14705;DHT22;7442;50.840;3.396;2023-01-13T16:52:39;25.30;42.10
14705;DHT22;7442;50.840;3.396;2023-01-13T16:55:26;25.20;42.20
14705;DHT22;7442;50.840;3.396;2023-01-13T16:58:17;25.20;42.10
14705;DHT22;7442;50.840;3.396;2023-01-13T17:01:04;25.30;42.10
14705;DHT22;7442;50.840;3.396;2023-01-13T17:03:51;25.30;42.10
14705;DHT22;7442;50.840;3.396;2023-01-13T17:06:40;25.30;42.10
14705;DHT22;7442;50.840;3.396;2023-01-13T17:09:28;25.20;42.20
14705;DHT22;7442;50.840;3.396;2023-01-13T17:12:15;25.10;42.30
14705;DHT22;7442;50.840;3.396;2023-01-13T17:15:02;25.00;42.20
14705;DHT22;7442;50.840;3.396;2023-01-13T17:17:48;25.00;42.40
14705;DHT22;7442;50.840;3.396;2023-01-13T17:20:36;24.90;42.50
14705;DHT22;7442;50.840;3.396;2023-01-13T17:23:22;24.90;42.70
14705;DHT22;7442;50.840;3.396;2023-01-13T17:26:19;24.80;42.80
14705;DHT22;7442;50.840;3.396;2023-01-13T17:29:04;24.70;42.70
14705;DHT22;7442;50.840;3.396;2023-01-13T17:31:51;24.80;42.80
14705;DHT22;7442;50.840;3.396;2023-01-13T17:34:37;24.80;42.90
14705;DHT22;7442;50.840;3.396;2023-01-13T17:37:24;24.70;42.90
14705;DHT22;7442;50.840;3.396;2023-01-13T17:40:10;24.70;42.90
14705;DHT22;7442;50.840;3.396;2023-01-13T17:42:57;24.70;43.00
14705;DHT22;7442;50.840;3.396;2023-01-13T17:45:43;24.70;43.10
14705;DHT22;7442;50.840;3.396;2023-01-13T17:48:29;24.70;43.10
14705;DHT22;7442;50.840;3.396;2023-01-13T17:51:17;24.80;43.10
14705;DHT22;7442;50.840;3.396;2023-01-13T17:54:04;24.90;43.00
14705;DHT22;7442;50.840;3.396;2023-01-13T17:56:51;24.90;43.00
14705;DHT22;7442;50.840;3.396;2023-01-13T17:59:37;24.90;43.00
14705;DHT22;7442;50.840;3.396;2023-01-13T18:02:25;24.90;42.90
14705;DHT22;7442;50.840;3.396;2023-01-13T18:05:13;25.00;42.90
14705;DHT22;7442;50.840;3.396;2023-01-13T18:08:00;25.00;42.60
14705;DHT22;7442;50.840;3.396;2023-01-13T18:10:50;25.00;42.50
14705;DHT22;7442;50.840;3.396;2023-01-13T18:13:37;24.90;42.70
14705;DHT22;7442;50.840;3.396;2023-01-13T18:16:26;24.90;42.80
14705;DHT22;7442;50.840;3.396;2023-01-13T18:19:13;24.90;42.80
14705;DHT22;7442;50.840;3.396;2023-01-13T18:22:18;24.90;42.90
14705;DHT22;7442;50.840;3.396;2023-01-13T18:25:22;24.90;42.90
14705;DHT22;7442;50.840;3.396;2023-01-13T18:28:28;24.90;42.80
14705;DHT22;7442;50.840;3.396;2023-01-13T18:31:21;25.00;42.60
14705;DHT22;7442;50.840;3.396;2023-01-13T18:34:07;25.00;42.80
14705;DHT22;7442;50.840;3.396;2023-01-13T18:36:53;24.90;43.00
14705;DHT22;7442;50.840;3.396;2023-01-13T18:39:40;25.00;42.90
14705;DHT22;7442;50.840;3.396;2023-01-13T18:42:26;25.00;42.90
14705;DHT22;7442;50.840;3.396;2023-01-13T18:45:31;24.90;42.90
14705;DHT22;7442;50.840;3.396;2023-01-13T18:48:17;24.90;43.00
14705;DHT22;7442;50.840;3.396;2023-01-13T18:51:04;24.90;43.10
14705;DHT22;7442;50.840;3.396;2023-01-13T18:53:51;24.90;43.10
14705;DHT22;7442;50.840;3.396;2023-01-13T18:56:38;24.90;43.10
14705;DHT22;7442;50.840;3.396;2023-01-13T18:59:24;24.90;43.30
14705;DHT22;7442;50.840;3.396;2023-01-13T19:02:13;24.80;43.40
14705;DHT22;7442;50.840;3.396;2023-01-13T19:05:00;24.90;43.50
14705;DHT22;7442;50.840;3.396;2023-01-13T19:07:47;24.80;43.50
14705;DHT22;7442;50.840;3.396;2023-01-13T19:10:35;24.70;43.60
14705;DHT22;7442;50.840;3.396;2023-01-13T19:13:23;24.50;43.40
14705;DHT22;7442;50.840;3.396;2023-01-13T19:16:09;24.80;43.40
14705;DHT22;7442;50.840;3.396;2023-01-13T19:18:56;24.80;43.20
14705;DHT22;7442;50.840;3.396;2023-01-13T19:21:44;24.90;43.20
14705;DHT22;7442;50.840;3.396;2023-01-13T19:24:30;24.90;43.20
14705;DHT22;7442;50.840;3.396;2023-01-13T19:27:18;24.90;43.20
14705;DHT22;7442;50.840;3.396;2023-01-13T19:30:05;24.90;43.30
14705;DHT22;7442;50.840;3.396;2023-01-13T19:32:57;24.90;43.40
14705;DHT22;7442;50.840;3.396;2023-01-13T19:35:44;24.90;43.50
14705;DHT22;7442;50.840;3.396;2023-01-13T19:38:31;24.80;43.80
14705;DHT22;7442;50.840;3.396;2023-01-13T19:41:17;24.90;43.70
14705;DHT22;7442;50.840;3.396;2023-01-13T19:44:22;24.80;43.60
14705;DHT22;7442;50.840;3.396;2023-01-13T19:47:26;24.80;43.70
14705;DHT22;7442;50.840;3.396;2023-01-13T19:50:13;24.90;43.90